sensor_id;sensor_type;location;lat;lon;timestamp;P1;durP1;ratioP1;P2;durP2;ratioP2
43098;SDS011;28715;51.988;6.020;2022-09-09T00:04:15;10.25;;;3.80;;
43098;SDS011;28715;51.988;6.020;2022-09-09T00:09:53;8.02;;;4.53;;
43098;SDS011;28715;51.988;6.020;2022-09-09T00:22:47;13.63;;;7.20;;
43098;SDS011;28715;51.988;6.020;2022-09-09T00:25:28;17.45;;;7.43;;
43098;SDS011;28715;51.988;6.020;2022-09-09T00:28:02;8.52;;;5.43;;
43098;SDS011;28715;51.988;6.020;2022-09-09T00:30:55;8.57;;;5.22;;
43098;SDS011;28715;51.988;6.020;2022-09-09T00:33:26;8.73;;;6.00;;
43098;SDS011;28715;51.988;6.020;2022-09-09T00:35:56;10.73;;;6.75;;
43098;SDS011;28715;51.988;6.020;2022-09-09T00:38:32;11.10;;;6.88;;
43098;SDS011;28715;51.988;6.020;2022-09-09T00:43:36;11.38;;;7.38;;
43098;SDS011;28715;51.988;6.020;2022-09-09T00:59:32;9.90;;;5.75;;
43098;SDS011;28715;51.988;6.020;2022-09-09T01:02:31;9.98;;;6.10;;
43098;SDS011;28715;51.988;6.020;2022-09-09T01:05:20;10.75;;;6.82;;
43098;SDS011;28715;51.988;6.020;2022-09-09T01:10:47;16.33;;;7.63;;
43098;SDS011;28715;51.988;6.020;2022-09-09T01:16:01;22.05;;;9.57;;
43098;SDS011;28715;51.988;6.020;2022-09-09T01:18:31;17.20;;;8.45;;
43098;SDS011;28715;51.988;6.020;2022-09-09T01:27:07;14.27;;;6.57;;
43098;SDS011;28715;51.988;6.020;2022-09-09T01:29:44;13.90;;;7.28;;
43098;SDS011;28715;51.988;6.020;2022-09-09T01:35:28;9.40;;;5.03;;
43098;SDS011;28715;51.988;6.020;2022-09-09T01:38:26;10.52;;;4.93;;
43098;SDS011;28715;51.988;6.020;2022-09-09T01:41:02;19.58;;;7.15;;
43098;SDS011;28715;51.988;6.020;2022-09-09T01:43:28;7.13;;;4.10;;
43098;SDS011;28715;51.988;6.020;2022-09-09T01:46:02;6.20;;;3.85;;
43098;SDS011;28715;51.988;6.020;2022-09-09T01:48:40;5.57;;;3.22;;
43098;SDS011;28715;51.988;6.020;2022-09-09T01:51:12;7.05;;;3.90;;
43098;SDS011;28715;51.988;6.020;2022-09-09T01:53:45;6.13;;;3.27;;
43098;SDS011;28715;51.988;6.020;2022-09-09T02:02:18;7.90;;;4.05;;
43098;SDS011;28715;51.988;6.020;2022-09-09T02:04:50;6.63;;;3.95;;
43098;SDS011;28715;51.988;6.020;2022-09-09T02:07:44;7.88;;;3.97;;
43098;SDS011;28715;51.988;6.020;2022-09-09T02:16:03;5.82;;;4.43;;
43098;SDS011;28715;51.988;6.020;2022-09-09T02:19:12;6.72;;;4.57;;
43098;SDS011;28715;51.988;6.020;2022-09-09T02:21:55;11.52;;;6.68;;
43098;SDS011;28715;51.988;6.020;2022-09-09T02:24:42;14.23;;;7.20;;
43098;SDS011;28715;51.988;6.020;2022-09-09T02:27:20;19.35;;;9.38;;
43098;SDS011;28715;51.988;6.020;2022-09-09T02:29:53;23.35;;;10.68;;
43098;SDS011;28715;51.988;6.020;2022-09-09T02:32:27;34.58;;;15.43;;
43098;SDS011;28715;51.988;6.020;2022-09-09T02:35:14;42.80;;;16.02;;
43098;SDS011;28715;51.988;6.020;2022-09-09T02:37:43;31.55;;;13.95;;
43098;SDS011;28715;51.988;6.020;2022-09-09T02:40:14;30.55;;;14.23;;
43098;SDS011;28715;51.988;6.020;2022-09-09T02:42:44;25.77;;;11.87;;
43098;SDS011;28715;51.988;6.020;2022-09-09T02:45:16;30.05;;;13.27;;
43098;SDS011;28715;51.988;6.020;2022-09-09T02:50:35;50.70;;;15.82;;
43098;SDS011;28715;51.988;6.020;2022-09-09T02:55:56;22.70;;;10.88;;
43098;SDS011;28715;51.988;6.020;2022-09-09T03:01:09;11.65;;;6.22;;
43098;SDS011;28715;51.988;6.020;2022-09-09T03:03:41;12.68;;;7.07;;
43098;SDS011;28715;51.988;6.020;2022-09-09T03:06:26;11.73;;;6.70;;
43098;SDS011;28715;51.988;6.020;2022-09-09T03:09:18;14.25;;;7.72;;
43098;SDS011;28715;51.988;6.020;2022-09-09T03:12:29;11.20;;;7.60;;
43098;SDS011;28715;51.988;6.020;2022-09-09T03:15:00;11.48;;;7.85;;
43098;SDS011;28715;51.988;6.020;2022-09-09T03:17:28;11.85;;;7.38;;
43098;SDS011;28715;51.988;6.020;2022-09-09T03:20:00;12.40;;;8.10;;
43098;SDS011;28715;51.988;6.020;2022-09-09T03:22:29;14.07;;;7.43;;
43098;SDS011;28715;51.988;6.020;2022-09-09T03:25:10;10.70;;;7.20;;
43098;SDS011;28715;51.988;6.020;2022-09-09T03:27:56;10.55;;;7.45;;
43098;SDS011;28715;51.988;6.020;2022-09-09T03:30:30;12.73;;;8.07;;
43098;SDS011;28715;51.988;6.020;2022-09-09T03:33:01;13.90;;;8.80;;
43098;SDS011;28715;51.988;6.020;2022-09-09T03:38:49;13.27;;;8.10;;
43098;SDS011;28715;51.988;6.020;2022-09-09T03:41:28;18.25;;;9.90;;
43098;SDS011;28715;51.988;6.020;2022-09-09T03:44:41;15.32;;;8.98;;
43098;SDS011;28715;51.988;6.020;2022-09-09T03:47:19;28.48;;;13.13;;
43098;SDS011;28715;51.988;6.020;2022-09-09T03:49:49;28.38;;;13.02;;
43098;SDS011;28715;51.988;6.020;2022-09-09T03:52:48;20.98;;;11.18;;
43098;SDS011;28715;51.988;6.020;2022-09-09T03:56:01;29.08;;;13.68;;
43098;SDS011;28715;51.988;6.020;2022-09-09T04:01:30;20.80;;;11.35;;
43098;SDS011;28715;51.988;6.020;2022-09-09T04:04:10;24.58;;;12.02;;
43098;SDS011;28715;51.988;6.020;2022-09-09T04:06:47;29.00;;;13.27;;
43098;SDS011;28715;51.988;6.020;2022-09-09T04:09:24;18.60;;;10.90;;
43098;SDS011;28715;51.988;6.020;2022-09-09T04:12:06;30.00;;;13.52;;
43098;SDS011;28715;51.988;6.020;2022-09-09T04:14:48;21.60;;;11.87;;
43098;SDS011;28715;51.988;6.020;2022-09-09T04:17:42;26.20;;;13.63;;
43098;SDS011;28715;51.988;6.020;2022-09-09T04:20:19;36.65;;;15.18;;
43098;SDS011;28715;51.988;6.020;2022-09-09T04:22:45;27.37;;;13.53;;
43098;SDS011;28715;51.988;6.020;2022-09-09T04:25:16;23.53;;;10.57;;
43098;SDS011;28715;51.988;6.020;2022-09-09T04:27:44;18.13;;;9.40;;
43098;SDS011;28715;51.988;6.020;2022-09-09T04:30:10;20.93;;;9.40;;
43098;SDS011;28715;51.988;6.020;2022-09-09T04:32:38;15.15;;;7.85;;
43098;SDS011;28715;51.988;6.020;2022-09-09T04:35:04;16.50;;;8.23;;
43098;SDS011;28715;51.988;6.020;2022-09-09T04:37:32;17.88;;;9.30;;
43098;SDS011;28715;51.988;6.020;2022-09-09T04:39:57;21.47;;;10.17;;
43098;SDS011;28715;51.988;6.020;2022-09-09T04:42:24;48.30;;;18.73;;
43098;SDS011;28715;51.988;6.020;2022-09-09T04:44:52;40.00;;;16.35;;
43098;SDS011;28715;51.988;6.020;2022-09-09T04:47:19;42.25;;;16.38;;
43098;SDS011;28715;51.988;6.020;2022-09-09T04:49:47;43.08;;;16.02;;
43098;SDS011;28715;51.988;6.020;2022-09-09T04:52:12;33.97;;;14.63;;
43098;SDS011;28715;51.988;6.020;2022-09-09T04:54:43;22.13;;;10.63;;
43098;SDS011;28715;51.988;6.020;2022-09-09T04:57:12;26.20;;;11.90;;
43098;SDS011;28715;51.988;6.020;2022-09-09T04:59:43;16.42;;;8.93;;
43098;SDS011;28715;51.988;6.020;2022-09-09T05:02:09;18.10;;;9.48;;
43098;SDS011;28715;51.988;6.020;2022-09-09T05:04:37;16.52;;;8.30;;
43098;SDS011;28715;51.988;6.020;2022-09-09T05:07:08;22.77;;;8.95;;
43098;SDS011;28715;51.988;6.020;2022-09-09T05:09:35;19.55;;;9.57;;
43098;SDS011;28715;51.988;6.020;2022-09-09T05:12:00;21.53;;;10.60;;
43098;SDS011;28715;51.988;6.020;2022-09-09T05:14:27;27.92;;;10.95;;
43098;SDS011;28715;51.988;6.020;2022-09-09T05:16:54;25.60;;;12.15;;
43098;SDS011;28715;51.988;6.020;2022-09-09T05:19:21;27.13;;;12.82;;
43098;SDS011;28715;51.988;6.020;2022-09-09T05:21:46;37.67;;;14.80;;
43098;SDS011;28715;51.988;6.020;2022-09-09T05:24:12;33.20;;;12.83;;
43098;SDS011;28715;51.988;6.020;2022-09-09T05:26:40;29.85;;;12.52;;
43098;SDS011;28715;51.988;6.020;2022-09-09T05:29:28;26.60;;;12.07;;
43098;SDS011;28715;51.988;6.020;2022-09-09T05:31:54;26.13;;;10.47;;
43098;SDS011;28715;51.988;6.020;2022-09-09T05:34:22;31.17;;;12.18;;
43098;SDS011;28715;51.988;6.020;2022-09-09T05:36:53;38.30;;;15.02;;
43098;SDS011;28715;51.988;6.020;2022-09-09T05:39:21;27.88;;;12.38;;
43098;SDS011;28715;51.988;6.020;2022-09-09T05:41:52;32.75;;;13.77;;
43098;SDS011;28715;51.988;6.020;2022-09-09T05:44:21;26.40;;;10.75;;
43098;SDS011;28715;51.988;6.020;2022-09-09T05:46:48;26.88;;;10.32;;
43098;SDS011;28715;51.988;6.020;2022-09-09T05:49:34;17.27;;;7.60;;
43098;SDS011;28715;51.988;6.020;2022-09-09T05:52:00;16.57;;;6.67;;
43098;SDS011;28715;51.988;6.020;2022-09-09T05:54:25;15.90;;;6.60;;
43098;SDS011;28715;51.988;6.020;2022-09-09T05:56:51;11.87;;;5.97;;
43098;SDS011;28715;51.988;6.020;2022-09-09T05:59:18;16.70;;;7.13;;
43098;SDS011;28715;51.988;6.020;2022-09-09T06:01:44;14.27;;;6.80;;
43098;SDS011;28715;51.988;6.020;2022-09-09T06:04:10;15.47;;;7.10;;
43098;SDS011;28715;51.988;6.020;2022-09-09T06:06:36;17.03;;;7.67;;
43098;SDS011;28715;51.988;6.020;2022-09-09T06:09:04;15.85;;;6.53;;
43098;SDS011;28715;51.988;6.020;2022-09-09T06:11:34;14.40;;;7.32;;
43098;SDS011;28715;51.988;6.020;2022-09-09T06:14:01;19.42;;;8.00;;
43098;SDS011;28715;51.988;6.020;2022-09-09T06:16:27;23.70;;;9.87;;
43098;SDS011;28715;51.988;6.020;2022-09-09T06:18:54;29.15;;;11.55;;
43098;SDS011;28715;51.988;6.020;2022-09-09T06:21:24;29.30;;;12.98;;
43098;SDS011;28715;51.988;6.020;2022-09-09T06:23:52;32.67;;;14.25;;
43098;SDS011;28715;51.988;6.020;2022-09-09T06:26:24;20.87;;;8.97;;
43098;SDS011;28715;51.988;6.020;2022-09-09T06:28:51;21.30;;;8.60;;
43098;SDS011;28715;51.988;6.020;2022-09-09T06:31:19;21.75;;;9.23;;
43098;SDS011;28715;51.988;6.020;2022-09-09T06:33:50;24.80;;;11.27;;
43098;SDS011;28715;51.988;6.020;2022-09-09T06:36:18;23.10;;;9.88;;
43098;SDS011;28715;51.988;6.020;2022-09-09T06:38:54;19.90;;;9.43;;
43098;SDS011;28715;51.988;6.020;2022-09-09T06:41:21;22.83;;;10.13;;
43098;SDS011;28715;51.988;6.020;2022-09-09T06:43:48;22.05;;;7.82;;
43098;SDS011;28715;51.988;6.020;2022-09-09T06:46:18;16.70;;;6.87;;
43098;SDS011;28715;51.988;6.020;2022-09-09T06:48:55;14.60;;;5.70;;
43098;SDS011;28715;51.988;6.020;2022-09-09T06:51:24;10.93;;;4.60;;
43098;SDS011;28715;51.988;6.020;2022-09-09T06:53:59;11.47;;;4.63;;
43098;SDS011;28715;51.988;6.020;2022-09-09T06:56:31;13.87;;;5.00;;
43098;SDS011;28715;51.988;6.020;2022-09-09T06:58:59;11.07;;;3.90;;
43098;SDS011;28715;51.988;6.020;2022-09-09T07:01:38;14.93;;;5.53;;
43098;SDS011;28715;51.988;6.020;2022-09-09T07:04:05;13.20;;;5.40;;
43098;SDS011;28715;51.988;6.020;2022-09-09T07:06:34;10.70;;;3.90;;
43098;SDS011;28715;51.988;6.020;2022-09-09T07:09:05;13.63;;;5.40;;
43098;SDS011;28715;51.988;6.020;2022-09-09T07:11:34;10.87;;;4.43;;
43098;SDS011;28715;51.988;6.020;2022-09-09T07:14:06;14.47;;;6.03;;
43098;SDS011;28715;51.988;6.020;2022-09-09T07:16:33;12.07;;;4.13;;
43098;SDS011;28715;51.988;6.020;2022-09-09T07:19:04;10.65;;;4.95;;
43098;SDS011;28715;51.988;6.020;2022-09-09T07:21:31;9.48;;;3.63;;
43098;SDS011;28715;51.988;6.020;2022-09-09T07:23:58;12.93;;;4.10;;
43098;SDS011;28715;51.988;6.020;2022-09-09T07:26:26;11.63;;;3.83;;
43098;SDS011;28715;51.988;6.020;2022-09-09T07:28:53;8.32;;;3.55;;
43098;SDS011;28715;51.988;6.020;2022-09-09T07:31:22;9.50;;;2.70;;
43098;SDS011;28715;51.988;6.020;2022-09-09T07:33:53;9.65;;;3.53;;
43098;SDS011;28715;51.988;6.020;2022-09-09T07:36:23;9.65;;;3.25;;
43098;SDS011;28715;51.988;6.020;2022-09-09T07:38:58;11.93;;;3.33;;
43098;SDS011;28715;51.988;6.020;2022-09-09T07:41:36;8.53;;;2.80;;
43098;SDS011;28715;51.988;6.020;2022-09-09T07:44:12;9.90;;;3.47;;
43098;SDS011;28715;51.988;6.020;2022-09-09T07:46:39;7.80;;;3.10;;
43098;SDS011;28715;51.988;6.020;2022-09-09T07:49:06;10.33;;;3.03;;
43098;SDS011;28715;51.988;6.020;2022-09-09T07:51:34;9.60;;;3.03;;
43098;SDS011;28715;51.988;6.020;2022-09-09T07:54:05;10.40;;;4.17;;
43098;SDS011;28715;51.988;6.020;2022-09-09T07:56:32;10.67;;;3.57;;
43098;SDS011;28715;51.988;6.020;2022-09-09T07:59:01;10.73;;;3.90;;
43098;SDS011;28715;51.988;6.020;2022-09-09T08:04:19;8.20;;;2.60;;
43098;SDS011;28715;51.988;6.020;2022-09-09T08:06:57;8.47;;;2.83;;
43098;SDS011;28715;51.988;6.020;2022-09-09T08:09:25;9.30;;;2.90;;
43098;SDS011;28715;51.988;6.020;2022-09-09T08:11:53;13.15;;;4.47;;
43098;SDS011;28715;51.988;6.020;2022-09-09T08:14:21;13.57;;;4.50;;
43098;SDS011;28715;51.988;6.020;2022-09-09T08:16:48;14.73;;;5.07;;
43098;SDS011;28715;51.988;6.020;2022-09-09T08:19:14;14.73;;;4.03;;
43098;SDS011;28715;51.988;6.020;2022-09-09T08:21:40;11.77;;;3.20;;
43098;SDS011;28715;51.988;6.020;2022-09-09T08:24:07;8.83;;;3.90;;
43098;SDS011;28715;51.988;6.020;2022-09-09T08:26:45;17.23;;;4.10;;
43098;SDS011;28715;51.988;6.020;2022-09-09T08:29:14;13.35;;;4.93;;
43098;SDS011;28715;51.988;6.020;2022-09-09T08:31:47;14.17;;;4.40;;
43098;SDS011;28715;51.988;6.020;2022-09-09T08:34:14;9.57;;;3.70;;
43098;SDS011;28715;51.988;6.020;2022-09-09T08:36:41;9.63;;;2.77;;
43098;SDS011;28715;51.988;6.020;2022-09-09T08:39:09;11.38;;;3.30;;
43098;SDS011;28715;51.988;6.020;2022-09-09T08:50:03;8.70;;;2.20;;
43098;SDS011;28715;51.988;6.020;2022-09-09T08:55:16;10.17;;;2.70;;
43098;SDS011;28715;51.988;6.020;2022-09-09T08:57:46;11.60;;;3.43;;
43098;SDS011;28715;51.988;6.020;2022-09-09T09:00:14;10.43;;;3.70;;
43098;SDS011;28715;51.988;6.020;2022-09-09T09:05:46;11.90;;;4.70;;
43098;SDS011;28715;51.988;6.020;2022-09-09T09:08:22;11.73;;;4.67;;
43098;SDS011;28715;51.988;6.020;2022-09-09T09:10:51;10.80;;;4.30;;
43098;SDS011;28715;51.988;6.020;2022-09-09T09:13:20;10.05;;;4.05;;
43098;SDS011;28715;51.988;6.020;2022-09-09T09:15:55;8.37;;;2.50;;
43098;SDS011;28715;51.988;6.020;2022-09-09T09:18:26;8.70;;;2.33;;
43098;SDS011;28715;51.988;6.020;2022-09-09T09:23:43;7.47;;;1.67;;
43098;SDS011;28715;51.988;6.020;2022-09-09T09:26:19;7.93;;;1.83;;
43098;SDS011;28715;51.988;6.020;2022-09-09T09:28:47;8.30;;;1.90;;
43098;SDS011;28715;51.988;6.020;2022-09-09T09:31:12;6.93;;;1.77;;
43098;SDS011;28715;51.988;6.020;2022-09-09T09:36:13;7.53;;;2.10;;
43098;SDS011;28715;51.988;6.020;2022-09-09T09:38:55;8.10;;;2.03;;
43098;SDS011;28715;51.988;6.020;2022-09-09T09:44:04;7.67;;;2.23;;
43098;SDS011;28715;51.988;6.020;2022-09-09T09:46:32;9.73;;;2.38;;
43098;SDS011;28715;51.988;6.020;2022-09-09T09:48:58;8.67;;;2.03;;
43098;SDS011;28715;51.988;6.020;2022-09-09T09:51:29;9.40;;;2.37;;
43098;SDS011;28715;51.988;6.020;2022-09-09T09:54:13;9.63;;;2.35;;
43098;SDS011;28715;51.988;6.020;2022-09-09T09:56:40;8.03;;;1.60;;
43098;SDS011;28715;51.988;6.020;2022-09-09T10:07:39;9.20;;;2.03;;
43098;SDS011;28715;51.988;6.020;2022-09-09T10:10:04;7.47;;;1.83;;
43098;SDS011;28715;51.988;6.020;2022-09-09T10:12:46;7.18;;;1.92;;
43098;SDS011;28715;51.988;6.020;2022-09-09T10:15:52;8.97;;;2.47;;
43098;SDS011;28715;51.988;6.020;2022-09-09T10:18:34;10.07;;;2.20;;
43098;SDS011;28715;51.988;6.020;2022-09-09T10:24:29;7.63;;;2.27;;
43098;SDS011;28715;51.988;6.020;2022-09-09T10:27:27;9.93;;;2.40;;
43098;SDS011;28715;51.988;6.020;2022-09-09T10:35:44;9.40;;;2.83;;
43098;SDS011;28715;51.988;6.020;2022-09-09T10:38:39;7.40;;;2.10;;
43098;SDS011;28715;51.988;6.020;2022-09-09T10:43:49;10.10;;;3.40;;
43098;SDS011;28715;51.988;6.020;2022-09-09T11:00:22;10.63;;;1.83;;
43098;SDS011;28715;51.988;6.020;2022-09-09T11:03:14;9.53;;;1.60;;
43098;SDS011;28715;51.988;6.020;2022-09-09T11:06:13;7.70;;;1.80;;
43098;SDS011;28715;51.988;6.020;2022-09-09T11:08:41;9.43;;;2.13;;
43098;SDS011;28715;51.988;6.020;2022-09-09T11:11:12;8.10;;;2.37;;
43098;SDS011;28715;51.988;6.020;2022-09-09T11:13:54;11.27;;;2.20;;
43098;SDS011;28715;51.988;6.020;2022-09-09T11:16:42;8.47;;;1.67;;
43098;SDS011;28715;51.988;6.020;2022-09-09T11:19:36;8.60;;;2.57;;
43098;SDS011;28715;51.988;6.020;2022-09-09T11:22:06;5.93;;;1.70;;
43098;SDS011;28715;51.988;6.020;2022-09-09T11:24:56;6.50;;;1.90;;
43098;SDS011;28715;51.988;6.020;2022-09-09T11:30:20;10.47;;;1.83;;
43098;SDS011;28715;51.988;6.020;2022-09-09T11:33:00;7.47;;;2.95;;
43098;SDS011;28715;51.988;6.020;2022-09-09T11:40:45;7.83;;;1.63;;
43098;SDS011;28715;51.988;6.020;2022-09-09T11:43:12;5.50;;;1.90;;
43098;SDS011;28715;51.988;6.020;2022-09-09T11:45:52;7.10;;;1.90;;
43098;SDS011;28715;51.988;6.020;2022-09-09T11:48:23;7.37;;;1.83;;
43098;SDS011;28715;51.988;6.020;2022-09-09T11:53:53;11.63;;;4.80;;
43098;SDS011;28715;51.988;6.020;2022-09-09T11:56:28;12.77;;;4.33;;
43098;SDS011;28715;51.988;6.020;2022-09-09T11:59:22;10.50;;;2.80;;
43098;SDS011;28715;51.988;6.020;2022-09-09T12:04:28;12.93;;;4.63;;
43098;SDS011;28715;51.988;6.020;2022-09-09T12:09:55;9.27;;;3.33;;
43098;SDS011;28715;51.988;6.020;2022-09-09T12:12:35;9.20;;;4.50;;
43098;SDS011;28715;51.988;6.020;2022-09-09T12:17:44;8.97;;;2.97;;
43098;SDS011;28715;51.988;6.020;2022-09-09T12:20:12;9.50;;;2.77;;
43098;SDS011;28715;51.988;6.020;2022-09-09T12:28:33;11.53;;;3.80;;
43098;SDS011;28715;51.988;6.020;2022-09-09T12:31:12;10.77;;;3.30;;
43098;SDS011;28715;51.988;6.020;2022-09-09T12:34:10;10.17;;;2.70;;
43098;SDS011;28715;51.988;6.020;2022-09-09T12:36:41;9.77;;;3.50;;
43098;SDS011;28715;51.988;6.020;2022-09-09T12:39:10;6.73;;;2.20;;
43098;SDS011;28715;51.988;6.020;2022-09-09T12:41:53;6.97;;;2.63;;
43098;SDS011;28715;51.988;6.020;2022-09-09T12:44:22;7.27;;;2.40;;
43098;SDS011;28715;51.988;6.020;2022-09-09T12:46:49;6.83;;;2.67;;
43098;SDS011;28715;51.988;6.020;2022-09-09T12:49:31;7.97;;;2.17;;
43098;SDS011;28715;51.988;6.020;2022-09-09T12:52:46;8.00;;;3.03;;
43098;SDS011;28715;51.988;6.020;2022-09-09T12:54:58;6.57;;;2.30;;
43098;SDS011;28715;51.988;6.020;2022-09-09T12:57:26;5.50;;;1.80;;
43098;SDS011;28715;51.988;6.020;2022-09-09T13:00:06;5.73;;;1.73;;
43098;SDS011;28715;51.988;6.020;2022-09-09T13:02:44;6.20;;;2.30;;
43098;SDS011;28715;51.988;6.020;2022-09-09T13:05:20;4.57;;;1.40;;
43098;SDS011;28715;51.988;6.020;2022-09-09T13:07:48;5.30;;;1.47;;
43098;SDS011;28715;51.988;6.020;2022-09-09T13:10:14;6.03;;;1.80;;
43098;SDS011;28715;51.988;6.020;2022-09-09T13:12:45;6.40;;;1.70;;
43098;SDS011;28715;51.988;6.020;2022-09-09T13:15:14;7.03;;;2.93;;
43098;SDS011;28715;51.988;6.020;2022-09-09T13:17:50;3.53;;;1.30;;
43098;SDS011;28715;51.988;6.020;2022-09-09T13:20:23;2.97;;;1.63;;
43098;SDS011;28715;51.988;6.020;2022-09-09T13:22:50;4.37;;;1.50;;
43098;SDS011;28715;51.988;6.020;2022-09-09T13:30:29;4.63;;;1.77;;
43098;SDS011;28715;51.988;6.020;2022-09-09T13:35:47;8.30;;;2.27;;
43098;SDS011;28715;51.988;6.020;2022-09-09T13:38:15;5.82;;;2.03;;
43098;SDS011;28715;51.988;6.020;2022-09-09T13:40:51;5.87;;;2.10;;
43098;SDS011;28715;51.988;6.020;2022-09-09T13:43:20;7.70;;;2.77;;
43098;SDS011;28715;51.988;6.020;2022-09-09T13:45:54;6.35;;;2.10;;
43098;SDS011;28715;51.988;6.020;2022-09-09T13:48:21;9.60;;;3.33;;
43098;SDS011;28715;51.988;6.020;2022-09-09T13:51:01;6.97;;;2.63;;
43098;SDS011;28715;51.988;6.020;2022-09-09T13:53:30;10.17;;;4.20;;
43098;SDS011;28715;51.988;6.020;2022-09-09T13:55:55;7.33;;;3.50;;
43098;SDS011;28715;51.988;6.020;2022-09-09T13:58:22;7.87;;;2.10;;
43098;SDS011;28715;51.988;6.020;2022-09-09T14:00:49;6.43;;;2.23;;
43098;SDS011;28715;51.988;6.020;2022-09-09T14:03:15;6.17;;;2.20;;
43098;SDS011;28715;51.988;6.020;2022-09-09T14:05:41;6.17;;;2.20;;
43098;SDS011;28715;51.988;6.020;2022-09-09T14:08:09;5.90;;;1.90;;
43098;SDS011;28715;51.988;6.020;2022-09-09T14:10:46;6.27;;;2.20;;
43098;SDS011;28715;51.988;6.020;2022-09-09T14:13:12;5.93;;;1.90;;
43098;SDS011;28715;51.988;6.020;2022-09-09T14:15:37;4.57;;;1.57;;
43098;SDS011;28715;51.988;6.020;2022-09-09T14:18:03;5.73;;;1.90;;
43098;SDS011;28715;51.988;6.020;2022-09-09T14:20:29;8.23;;;1.40;;
43098;SDS011;28715;51.988;6.020;2022-09-09T14:22:54;6.33;;;2.30;;
43098;SDS011;28715;51.988;6.020;2022-09-09T14:25:21;7.20;;;2.37;;
43098;SDS011;28715;51.988;6.020;2022-09-09T14:27:47;9.83;;;3.47;;
43098;SDS011;28715;51.988;6.020;2022-09-09T14:30:12;9.33;;;3.07;;
43098;SDS011;28715;51.988;6.020;2022-09-09T14:32:38;8.37;;;3.40;;
43098;SDS011;28715;51.988;6.020;2022-09-09T14:35:03;9.30;;;3.50;;
43098;SDS011;28715;51.988;6.020;2022-09-09T14:37:29;4.73;;;1.97;;
43098;SDS011;28715;51.988;6.020;2022-09-09T14:39:56;8.17;;;2.90;;
43098;SDS011;28715;51.988;6.020;2022-09-09T14:42:21;7.57;;;2.73;;
43098;SDS011;28715;51.988;6.020;2022-09-09T14:44:48;8.53;;;3.30;;
43098;SDS011;28715;51.988;6.020;2022-09-09T14:47:13;6.03;;;2.00;;
43098;SDS011;28715;51.988;6.020;2022-09-09T14:49:39;7.87;;;2.60;;
43098;SDS011;28715;51.988;6.020;2022-09-09T14:52:05;8.70;;;3.40;;
43098;SDS011;28715;51.988;6.020;2022-09-09T14:54:31;9.53;;;3.73;;
43098;SDS011;28715;51.988;6.020;2022-09-09T14:56:57;13.60;;;4.77;;
43098;SDS011;28715;51.988;6.020;2022-09-09T14:59:23;7.70;;;3.10;;
43098;SDS011;28715;51.988;6.020;2022-09-09T15:01:48;7.73;;;2.27;;
43098;SDS011;28715;51.988;6.020;2022-09-09T15:04:14;5.73;;;2.17;;
43098;SDS011;28715;51.988;6.020;2022-09-09T15:06:40;7.57;;;2.10;;
43098;SDS011;28715;51.988;6.020;2022-09-09T15:09:08;6.17;;;1.90;;
43098;SDS011;28715;51.988;6.020;2022-09-09T15:11:35;4.83;;;1.80;;
43098;SDS011;28715;51.988;6.020;2022-09-09T15:21:26;6.47;;;2.20;;
43098;SDS011;28715;51.988;6.020;2022-09-09T15:23:53;5.68;;;1.80;;
43098;SDS011;28715;51.988;6.020;2022-09-09T15:26:20;5.57;;;1.83;;
43098;SDS011;28715;51.988;6.020;2022-09-09T15:28:46;6.03;;;2.07;;
43098;SDS011;28715;51.988;6.020;2022-09-09T15:31:13;4.67;;;1.60;;
43098;SDS011;28715;51.988;6.020;2022-09-09T15:33:46;4.60;;;1.50;;
43098;SDS011;28715;51.988;6.020;2022-09-09T15:36:14;8.83;;;2.30;;
43098;SDS011;28715;51.988;6.020;2022-09-09T15:38:45;8.57;;;2.40;;
43098;SDS011;28715;51.988;6.020;2022-09-09T15:41:12;6.80;;;2.23;;
43098;SDS011;28715;51.988;6.020;2022-09-09T15:43:38;7.00;;;2.40;;
43098;SDS011;28715;51.988;6.020;2022-09-09T15:48:42;6.77;;;1.73;;
43098;SDS011;28715;51.988;6.020;2022-09-09T15:51:09;4.77;;;1.63;;
43098;SDS011;28715;51.988;6.020;2022-09-09T15:53:36;4.73;;;2.20;;
43098;SDS011;28715;51.988;6.020;2022-09-09T15:56:04;7.77;;;1.93;;
43098;SDS011;28715;51.988;6.020;2022-09-09T15:58:33;6.25;;;1.92;;
43098;SDS011;28715;51.988;6.020;2022-09-09T16:01:10;5.67;;;1.30;;
43098;SDS011;28715;51.988;6.020;2022-09-09T16:03:41;4.27;;;1.73;;
43098;SDS011;28715;51.988;6.020;2022-09-09T16:06:08;8.43;;;3.13;;
43098;SDS011;28715;51.988;6.020;2022-09-09T16:08:38;7.47;;;2.20;;
43098;SDS011;28715;51.988;6.020;2022-09-09T16:11:25;4.20;;;1.83;;
43098;SDS011;28715;51.988;6.020;2022-09-09T16:13:53;7.00;;;1.60;;
43098;SDS011;28715;51.988;6.020;2022-09-09T16:16:20;7.53;;;1.80;;
43098;SDS011;28715;51.988;6.020;2022-09-09T16:18:49;5.20;;;1.33;;
43098;SDS011;28715;51.988;6.020;2022-09-09T16:21:23;7.00;;;2.00;;
43098;SDS011;28715;51.988;6.020;2022-09-09T16:23:57;1.60;;;0.40;;
43098;SDS011;28715;51.988;6.020;2022-09-09T16:26:24;4.33;;;0.60;;
43098;SDS011;28715;51.988;6.020;2022-09-09T16:28:50;2.80;;;0.70;;
43098;SDS011;28715;51.988;6.020;2022-09-09T16:31:17;2.43;;;0.93;;
43098;SDS011;28715;51.988;6.020;2022-09-09T16:33:44;3.77;;;0.83;;
43098;SDS011;28715;51.988;6.020;2022-09-09T16:36:15;4.30;;;1.00;;
43098;SDS011;28715;51.988;6.020;2022-09-09T16:38:52;3.73;;;1.17;;
43098;SDS011;28715;51.988;6.020;2022-09-09T16:41:19;3.50;;;1.27;;
43098;SDS011;28715;51.988;6.020;2022-09-09T16:43:45;3.40;;;1.10;;
43098;SDS011;28715;51.988;6.020;2022-09-09T16:46:16;8.00;;;1.20;;
43098;SDS011;28715;51.988;6.020;2022-09-09T16:48:43;4.83;;;1.30;;
43098;SDS011;28715;51.988;6.020;2022-09-09T16:51:14;4.83;;;1.60;;
43098;SDS011;28715;51.988;6.020;2022-09-09T16:53:43;3.03;;;1.40;;
43098;SDS011;28715;51.988;6.020;2022-09-09T16:56:15;2.80;;;1.13;;
43098;SDS011;28715;51.988;6.020;2022-09-09T16:58:44;6.83;;;3.97;;
43098;SDS011;28715;51.988;6.020;2022-09-09T17:01:15;4.50;;;2.40;;
43098;SDS011;28715;51.988;6.020;2022-09-09T17:03:40;2.70;;;1.43;;
43098;SDS011;28715;51.988;6.020;2022-09-09T17:06:15;3.20;;;1.67;;
43098;SDS011;28715;51.988;6.020;2022-09-09T17:08:41;3.93;;;1.50;;
43098;SDS011;28715;51.988;6.020;2022-09-09T17:11:14;3.50;;;1.40;;
43098;SDS011;28715;51.988;6.020;2022-09-09T17:13:41;3.93;;;1.77;;
43098;SDS011;28715;51.988;6.020;2022-09-09T17:16:08;5.23;;;1.53;;
43098;SDS011;28715;51.988;6.020;2022-09-09T17:18:34;5.47;;;2.13;;
43098;SDS011;28715;51.988;6.020;2022-09-09T17:21:04;3.70;;;1.60;;
43098;SDS011;28715;51.988;6.020;2022-09-09T17:23:41;6.47;;;1.80;;
43098;SDS011;28715;51.988;6.020;2022-09-09T17:26:12;3.33;;;1.77;;
43098;SDS011;28715;51.988;6.020;2022-09-09T17:28:40;3.63;;;1.67;;
43098;SDS011;28715;51.988;6.020;2022-09-09T17:31:08;5.90;;;2.03;;
43098;SDS011;28715;51.988;6.020;2022-09-09T17:33:35;3.13;;;1.70;;
43098;SDS011;28715;51.988;6.020;2022-09-09T17:38:39;4.93;;;2.10;;
43098;SDS011;28715;51.988;6.020;2022-09-09T17:41:08;5.53;;;2.00;;
43098;SDS011;28715;51.988;6.020;2022-09-09T17:43:36;3.50;;;2.03;;
43098;SDS011;28715;51.988;6.020;2022-09-09T17:46:06;5.37;;;2.37;;
43098;SDS011;28715;51.988;6.020;2022-09-09T17:48:33;4.90;;;2.53;;
43098;SDS011;28715;51.988;6.020;2022-09-09T17:51:00;5.13;;;2.70;;
43098;SDS011;28715;51.988;6.020;2022-09-09T17:53:25;6.80;;;3.10;;
43098;SDS011;28715;51.988;6.020;2022-09-09T17:55:51;9.83;;;5.23;;
43098;SDS011;28715;51.988;6.020;2022-09-09T17:58:17;10.37;;;5.83;;
43098;SDS011;28715;51.988;6.020;2022-09-09T18:00:42;19.90;;;10.60;;
43098;SDS011;28715;51.988;6.020;2022-09-09T18:03:08;18.97;;;9.40;;
43098;SDS011;28715;51.988;6.020;2022-09-09T18:05:33;13.00;;;7.30;;
43098;SDS011;28715;51.988;6.020;2022-09-09T18:07:59;12.37;;;5.73;;